Time;durP1;ratioP1;P1;durP2;ratioP2;P2;SDS_P1;SDS_P2;PMS_P1;PMS_P2;Temp;Humidity;BMP_temperature;BMP_pressure;BME280_temperature;BME280_humidity;BME280_pressure;Samples;Min_cycle;Max_cycle;Signal;HPM_P1;HPM_P2
2022/11/18 00:01:19;;;;;;;5.60;2.20;;;10.80;99.90;;;;;;4951854;29;20645;-71
2022/11/18 00:03:45;;;;;;;4.33;2.50;;;10.80;99.90;;;;;;4953643;29;20440;-71
2022/11/18 00:06:16;;;;;;;6.30;2.97;;;10.80;99.90;;;;;;4952011;29;20477;-71
2022/11/18 00:08:42;;;;;;;4.67;2.60;;;10.70;99.90;;;;;;4938728;29;21021;-72
2022/11/18 00:11:11;;;;;;;3.10;2.30;;;10.70;99.90;;;;;;4957572;29;20529;-71
2022/11/18 00:16:22;;;;;;;6.03;3.77;;;10.70;99.90;;;;;;4943357;29;20444;-70
2022/11/18 00:18:48;;;;;;;3.90;2.30;;;10.70;99.90;;;;;;4957433;29;20526;-70
2022/11/18 00:21:14;;;;;;;2.60;2.10;;;10.70;99.90;;;;;;4957165;29;20529;-71
2022/11/18 00:23:39;;;;;;;5.67;2.27;;;10.70;99.90;;;;;;4957829;29;20182;-72
2022/11/18 00:26:13;;;;;;;8.70;2.23;;;10.60;99.90;;;;;;4976639;28;20472;-72
2022/11/18 00:28:40;;;;;;;6.00;2.27;;;10.60;99.90;;;;;;4977261;28;20204;-71
2022/11/18 00:31:11;;;;;;;4.00;2.33;;;10.60;99.90;;;;;;4976088;28;20636;-71
2022/11/18 00:33:37;;;;;;;7.40;3.00;;;10.50;99.90;;;;;;4977338;28;20439;-72
2022/11/18 00:36:04;;;;;;;7.73;2.57;;;10.50;99.90;;;;;;4977161;28;20532;-72
2022/11/18 00:38:30;;;;;;;5.77;2.10;;;10.50;99.90;;;;;;4977107;28;20432;-72
2022/11/18 00:41:14;;;;;;;3.10;1.90;;;10.50;99.90;;;;;;4977041;28;20433;-71
2022/11/18 00:43:41;;;;;;;4.23;2.13;;;10.50;99.90;;;;;;4977140;28;20178;-71
2022/11/18 00:46:09;;;;;;;5.20;2.50;;;10.50;99.90;;;;;;4976920;28;20571;-71
2022/11/18 00:48:35;;;;;;;5.20;2.30;;;10.60;99.90;;;;;;4977019;28;20806;-71
2022/11/18 00:51:14;;;;;;;4.83;2.30;;;10.60;99.90;;;;;;4976817;28;20424;-71
2022/11/18 00:53:39;;;;;;;2.83;2.00;;;10.60;99.90;;;;;;4976940;28;20443;-71
2022/11/18 00:56:06;;;;;;;10.03;2.40;;;10.60;99.90;;;;;;4976857;28;20425;-71
2022/11/18 00:58:31;;;;;;;8.27;3.27;;;10.60;99.90;;;;;;4976763;28;20181;-72
2022/11/18 01:00:58;;;;;;;4.13;2.13;;;10.60;99.90;;;;;;4976934;28;20421;-72
2022/11/18 01:03:24;;;;;;;5.37;2.20;;;10.70;99.90;;;;;;4976891;28;20173;-72
2022/11/18 01:05:50;;;;;;;6.13;2.20;;;10.70;99.90;;;;;;4976762;28;20872;-72
2022/11/18 01:08:18;;;;;;;6.30;2.53;;;10.70;99.90;;;;;;4976846;28;20448;-72
2022/11/18 01:10:44;;;;;;;2.10;1.80;;;10.70;99.90;;;;;;4976800;28;20429;-72
2022/11/18 01:13:18;;;;;;;5.10;2.30;;;10.70;99.90;;;;;;4976524;28;20433;-72
2022/11/18 01:15:46;;;;;;;2.97;1.90;;;10.70;99.90;;;;;;4976667;28;20436;-71
2022/11/18 01:18:13;;;;;;;9.30;2.07;;;10.70;99.90;;;;;;4975400;28;20441;-71
2022/11/18 01:20:38;;;;;;;6.80;2.13;;;10.70;99.90;;;;;;4975589;28;20436;-71
2022/11/18 01:23:04;;;;;;;5.87;2.17;;;10.80;99.90;;;;;;4976348;28;20433;-71
2022/11/18 01:25:30;;;;;;;4.47;1.80;;;10.80;99.90;;;;;;4976221;28;20522;-71
2022/11/18 01:27:55;;;;;;;3.80;2.27;;;10.70;99.90;;;;;;4976122;28;20185;-72
2022/11/18 01:30:21;;;;;;;6.53;2.20;;;10.70;99.90;;;;;;4958939;28;20480;-72
2022/11/18 01:32:47;;;;;;;4.33;2.40;;;10.70;99.90;;;;;;4958760;28;20565;-71
2022/11/18 05:31:12;;;;;;;5.50;3.10;;;10.70;99.90;;;;;;5661247;23;21038;-73
2022/11/18 05:33:38;;;;;;;9.13;3.60;;;10.70;99.90;;;;;;4976439;28;20441;-73
2022/11/18 05:36:05;;;;;;;9.57;4.17;;;10.70;99.90;;;;;;4976227;28;20433;-73
2022/11/18 05:38:32;;;;;;;5.67;3.70;;;10.70;99.90;;;;;;4976147;28;20433;-73
2022/11/18 05:40:58;;;;;;;7.13;2.90;;;10.70;99.90;;;;;;4976247;28;20429;-73
2022/11/18 05:43:23;;;;;;;9.67;3.10;;;10.70;99.90;;;;;;4976149;28;20870;-73
2022/11/18 05:45:50;;;;;;;7.90;3.10;;;10.70;99.90;;;;;;4976080;28;20214;-73
2022/11/18 05:48:16;;;;;;;9.10;3.30;;;10.70;99.90;;;;;;4976125;28;20189;-73
2022/11/18 05:50:49;;;;;;;5.07;3.17;;;10.60;99.90;;;;;;4976101;28;20499;-73
2022/11/18 05:53:16;;;;;;;7.93;3.80;;;10.60;99.90;;;;;;4976029;28;20428;-72
2022/11/18 05:55:53;;;;;;;6.03;3.20;;;10.60;99.90;;;;;;4975991;28;20433;-71
2022/11/18 05:58:19;;;;;;;7.17;2.90;;;10.60;99.90;;;;;;4976100;28;20463;-71
2022/11/18 06:00:46;;;;;;;7.67;2.93;;;10.60;99.90;;;;;;4975973;28;20425;-73
2022/11/18 06:03:19;;;;;;;9.03;2.73;;;10.60;99.90;;;;;;4975938;28;20525;-73
2022/11/18 06:05:45;;;;;;;6.23;2.70;;;10.60;99.90;;;;;;4975477;28;20425;-73
2022/11/18 06:08:15;;;;;;;9.37;3.00;;;10.60;99.90;;;;;;4975730;28;20441;-73
2022/11/18 06:10:42;;;;;;;3.93;2.60;;;10.60;99.90;;;;;;4975670;28;20421;-73
2022/11/18 06:13:13;;;;;;;7.50;3.47;;;10.60;99.90;;;;;;4975426;28;20524;-73
2022/11/18 06:15:42;;;;;;;8.10;4.70;;;10.60;99.90;;;;;;4975635;28;20425;-73
2022/11/18 06:18:16;;;;;;;12.43;3.20;;;10.60;99.90;;;;;;4975478;28;20495;-73
2022/11/18 06:20:42;;;;;;;5.97;3.17;;;10.60;99.90;;;;;;4958232;28;20438;-73
2022/11/18 06:23:07;;;;;;;7.70;4.10;;;10.60;99.90;;;;;;4975371;28;20966;-74
2022/11/18 06:25:39;;;;;;;5.37;2.93;;;10.70;99.90;;;;;;4975425;28;20966;-72
2022/11/18 06:28:05;;;;;;;7.07;3.30;;;10.70;99.90;;;;;;4975343;28;20186;-74
2022/11/18 06:30:30;;;;;;;8.27;2.97;;;10.70;99.90;;;;;;4975169;28;20445;-75
2022/11/18 06:32:56;;;;;;;10.10;3.27;;;10.70;99.90;;;;;;4957925;28;20477;-72
2022/11/18 06:35:21;;;;;;;5.43;3.67;;;10.70;99.90;;;;;;4975220;28;20173;-71
2022/11/18 06:37:47;;;;;;;6.00;3.00;;;10.70;99.90;;;;;;4974099;28;20166;-74
2022/11/18 06:40:13;;;;;;;4.07;3.40;;;10.70;99.90;;;;;;4969785;28;20235;-72
2022/11/18 06:45:23;;;;;;;4.17;3.37;;;10.70;99.90;;;;;;4958919;28;20185;-74
2022/11/18 06:47:48;;;;;;;7.40;3.63;;;10.60;99.90;;;;;;4954752;28;20485;-74
2022/11/18 06:50:14;;;;;;;7.67;3.63;;;10.70;99.90;;;;;;4944828;28;20333;-75
2022/11/18 06:52:40;;;;;;;7.30;3.03;;;10.70;99.90;;;;;;4960144;28;20185;-76
2022/11/18 06:55:07;;;;;;;4.60;3.13;;;10.70;99.90;;;;;;4964815;28;20178;-73
2022/11/18 06:57:35;;;;;;;8.10;3.70;;;10.70;99.90;;;;;;4963424;28;20175;-73
2022/11/18 07:00:01;;;;;;;4.80;3.57;;;10.70;99.90;;;;;;4963189;28;20429;-73
2022/11/18 07:02:27;;;;;;;3.33;2.90;;;10.70;99.90;;;;;;4964713;28;20429;-73
2022/11/18 07:04:52;;;;;;;8.93;3.77;;;10.70;99.90;;;;;;4961526;28;20179;-74
2022/11/18 07:07:18;;;;;;;4.33;3.50;;;10.70;99.90;;;;;;4959037;28;20214;-75
2022/11/18 07:09:43;;;;;;;7.07;3.60;;;10.70;99.90;;;;;;4960701;28;20641;-71
2022/11/18 07:12:09;;;;;;;5.53;3.20;;;10.70;99.90;;;;;;4960062;28;20318;-73
2022/11/18 07:14:34;;;;;;;3.63;3.23;;;10.70;99.90;;;;;;4959061;28;20178;-74
2022/11/18 07:17:00;;;;;;;5.10;4.00;;;10.70;99.90;;;;;;4958864;28;20206;-74
2022/11/18 07:19:26;;;;;;;7.90;3.57;;;10.80;99.90;;;;;;4959341;28;20209;-73
2022/11/18 07:21:51;;;;;;;6.87;3.70;;;10.80;99.90;;;;;;4959677;28;20175;-72
2022/11/18 07:24:17;;;;;;;5.07;3.07;;;10.80;99.90;;;;;;4961214;28;20170;-72
2022/11/18 07:26:42;;;;;;;5.83;3.10;;;10.80;99.90;;;;;;4960042;28;20210;-71
2022/11/18 07:29:08;;;;;;;10.50;4.87;;;10.80;99.90;;;;;;4958616;28;20938;-74
2022/11/18 07:31:37;;;;;;;10.20;3.50;;;10.80;99.90;;;;;;4959331;28;20328;-77
2022/11/18 07:34:03;;;;;;;7.63;3.70;;;10.80;99.90;;;;;;4962093;28;20430;-72
2022/11/18 07:36:29;;;;;;;6.27;3.97;;;10.80;99.90;;;;;;4962315;28;20470;-71
2022/11/18 07:38:57;;;;;;;5.80;3.87;;;10.90;99.90;;;;;;4960435;28;20182;-72
2022/11/18 07:41:26;;;;;;;8.40;3.97;;;10.90;99.90;;;;;;4962560;28;20429;-73
2022/11/18 07:43:53;;;;;;;7.07;3.77;;;10.90;99.90;;;;;;4961891;28;20920;-71
2022/11/18 07:46:32;;;;;;;7.43;3.87;;;10.90;99.90;;;;;;4961243;28;20465;-76
2022/11/18 07:49:00;;;;;;;5.20;3.60;;;10.90;99.90;;;;;;4962696;28;20975;-72
2022/11/18 07:51:27;;;;;;;8.30;3.73;;;10.90;99.90;;;;;;4962891;28;20423;-73
2022/11/18 07:53:53;;;;;;;8.70;4.43;;;10.90;99.90;;;;;;4962963;28;20442;-75
2022/11/18 07:56:20;;;;;;;5.77;4.20;;;10.90;99.90;;;;;;4965026;28;20524;-76
2022/11/18 07:58:45;;;;;;;13.13;3.73;;;10.90;99.90;;;;;;4964393;28;20186;-78
2022/11/18 08:01:12;;;;;;;7.10;4.13;;;10.90;99.90;;;;;;4961090;28;20500;-76
2022/11/18 08:03:39;;;;;;;6.20;3.93;;;11.00;99.90;;;;;;4963207;28;20178;-74
2022/11/18 08:06:06;;;;;;;7.90;4.73;;;11.00;99.90;;;;;;4963656;28;20853;-81
2022/11/18 08:08:32;;;;;;;5.40;4.40;;;11.00;99.90;;;;;;4967825;28;20929;-73
2022/11/18 08:11:00;;;;;;;6.27;4.07;;;11.00;99.90;;;;;;4969479;28;20427;-81
2022/11/18 08:13:26;;;;;;;6.50;4.40;;;11.10;99.90;;;;;;4963615;28;20183;-78
2022/11/18 08:15:52;;;;;;;18.00;4.40;;;11.10;99.90;;;;;;4962052;28;20422;-84
2022/11/18 08:18:18;;;;;;;6.53;4.13;;;11.10;99.90;;;;;;4959546;28;20509;-78
2022/11/18 08:20:44;;;;;;;8.10;5.30;;;11.10;99.90;;;;;;4964242;28;20853;-78
2022/11/18 08:23:10;;;;;;;10.67;4.67;;;11.10;99.90;;;;;;4961471;28;20546;-75
2022/11/18 08:25:36;;;;;;;11.80;5.60;;;11.10;99.90;;;;;;4953769;29;21032;-75
2022/11/18 08:28:01;;;;;;;10.13;5.00;;;11.10;99.90;;;;;;4959545;28;20454;-80
2022/11/18 08:30:27;;;;;;;11.23;6.10;;;11.10;99.90;;;;;;4967134;28;20268;-78
2022/11/18 08:32:52;;;;;;;20.00;5.87;;;11.10;99.90;;;;;;4967008;28;20170;-77
2022/11/18 08:35:18;;;;;;;18.13;7.20;;;11.10;99.90;;;;;;4966000;28;20178;-76
2022/11/18 08:37:43;;;;;;;8.37;5.10;;;11.10;99.90;;;;;;4967883;28;20596;-76
2022/11/18 08:40:09;;;;;;;6.67;5.13;;;11.20;99.90;;;;;;4966555;28;20645;-75
2022/11/18 08:42:36;;;;;;;11.83;6.80;;;11.20;99.90;;;;;;4968155;28;20660;-73
2022/11/18 08:45:07;;;;;;;8.60;5.70;;;11.20;99.90;;;;;;4966553;28;20430;-76
2022/11/18 08:47:33;;;;;;;12.17;7.00;;;11.20;99.90;;;;;;4971787;28;20473;-77
2022/11/18 08:49:59;;;;;;;5.90;5.20;;;11.20;99.90;;;;;;4978465;28;20432;-76
2022/11/18 08:52:24;;;;;;;9.90;6.07;;;11.30;99.90;;;;;;4972128;28;20433;-78
2022/11/18 08:54:50;;;;;;;8.67;5.53;;;11.30;99.90;;;;;;4966576;28;20179;-77
2022/11/18 08:57:16;;;;;;;8.50;6.60;;;11.30;99.90;;;;;;4977291;28;20174;-80
2022/11/18 08:59:41;;;;;;;9.63;5.50;;;11.30;99.90;;;;;;4973794;28;20268;-77
2022/11/18 09:02:14;;;;;;;6.93;5.00;;;11.30;99.90;;;;;;4969399;28;20693;-78
2022/11/18 09:04:40;;;;;;;9.30;5.30;;;11.30;99.90;;;;;;4966339;28;20591;-76
2022/11/18 09:07:06;;;;;;;8.37;6.00;;;11.30;99.90;;;;;;4966739;28;20548;-77
2022/11/18 09:09:32;;;;;;;9.33;5.90;;;11.30;99.90;;;;;;4971204;28;20480;-77
2022/11/18 09:11:57;;;;;;;7.87;5.70;;;11.40;99.90;;;;;;4966637;28;20178;-78
2022/11/18 09:14:23;;;;;;;10.80;5.73;;;11.30;99.90;;;;;;4965916;28;20177;-78
2022/11/18 09:16:48;;;;;;;10.67;6.30;;;11.40;99.90;;;;;;4966650;28;20524;-79
2022/11/18 09:19:15;;;;;;;8.50;6.60;;;11.40;99.90;;;;;;4970460;28;20173;-79
2022/11/18 09:21:41;;;;;;;10.43;6.03;;;11.30;99.90;;;;;;4975955;28;20545;-78
2022/11/18 09:24:07;;;;;;;15.27;6.43;;;11.40;99.90;;;;;;4961253;28;20434;-71
2022/11/18 09:26:33;;;;;;;8.70;6.90;;;11.50;99.90;;;;;;4956331;29;20205;-76
2022/11/18 09:28:59;;;;;;;14.10;6.50;;;11.60;99.90;;;;;;4956328;29;20422;-76
2022/11/18 09:31:24;;;;;;;11.37;5.87;;;11.60;99.90;;;;;;4956030;28;20233;-76
2022/11/18 09:33:50;;;;;;;11.00;6.37;;;11.60;99.90;;;;;;4968758;28;20205;-77
2022/11/18 09:36:19;;;;;;;6.70;6.00;;;11.60;99.90;;;;;;4966906;28;20175;-76
2022/11/18 09:38:45;;;;;;;12.60;5.40;;;11.60;99.90;;;;;;4964295;28;20209;-81
2022/11/18 09:41:44;;;;;;;13.07;6.50;;;11.70;99.90;;;;;;4966767;28;20425;-80
2022/11/18 09:44:35;;;;;;;9.10;6.07;;;11.70;99.90;;;;;;4964557;28;20182;-76
2022/11/18 09:47:04;;;;;;;8.30;5.83;;;11.70;99.90;;;;;;4965618;28;20478;-78
2022/11/18 09:49:35;;;;;;;9.47;5.77;;;11.70;99.90;;;;;;4955908;29;20426;-77
2022/11/18 09:52:14;;;;;;;9.10;5.10;;;11.70;99.90;;;;;;4956486;28;20441;-79
2022/11/18 09:54:40;;;;;;;8.52;5.90;;;11.80;99.90;;;;;;4954928;29;20439;-77
2022/11/18 09:57:19;;;;;;;6.93;5.57;;;11.80;99.90;;;;;;4961033;28;20593;-79
2022/11/18 09:59:44;;;;;;;11.90;6.30;;;11.80;99.90;;;;;;4960876;28;20183;-77
2022/11/18 10:02:40;;;;;;;8.40;5.90;;;11.90;99.90;;;;;;4963221;28;20947;-77
2022/11/18 10:05:27;;;;;;;9.30;6.50;;;11.80;99.90;;;;;;4926167;28;20253;-77
2022/11/18 10:08:25;;;;;;;9.23;5.93;;;11.80;99.90;;;;;;4964077;28;20477;-77
2022/11/18 10:10:55;;;;;;;12.43;6.10;;;11.80;99.90;;;;;;4951463;28;20557;-77
2022/11/18 10:13:40;;;;;;;7.50;5.80;;;11.80;99.90;;;;;;4965309;28;20430;-77
2022/11/18 10:16:38;;;;;;;9.00;5.90;;;11.80;99.90;;;;;;4965379;28;20861;-79
2022/11/18 10:19:23;;;;;;;6.77;5.73;;;11.90;99.90;;;;;;4968030;28;20520;-77
2022/11/18 10:22:15;;;;;;;10.03;6.07;;;11.90;99.90;;;;;;4974558;28;20768;-78
2022/11/18 10:24:43;;;;;;;11.07;7.17;;;11.90;99.90;;;;;;4971237;28;20508;-77
2022/11/18 10:27:14;;;;;;;7.23;6.10;;;11.90;99.90;;;;;;4969069;28;20476;-78
2022/11/18 10:29:40;;;;;;;7.60;5.00;;;11.90;99.90;;;;;;4968993;28;20433;-77
2022/11/18 10:32:19;;;;;;;11.13;5.50;;;11.90;99.90;;;;;;4965112;28;20473;-78
2022/11/18 10:34:55;;;;;;;14.87;6.67;;;11.90;99.90;;;;;;4962688;28;20440;-78
2022/11/18 10:37:35;;;;;;;10.17;6.57;;;11.90;99.90;;;;;;4964696;28;20414;-77
2022/11/18 10:40:02;;;;;;;8.73;6.60;;;12.00;99.90;;;;;;4963551;28;20548;-78
2022/11/18 10:42:33;;;;;;;13.90;6.63;;;12.00;99.90;;;;;;4965134;28;20425;-78
2022/11/18 10:45:28;;;;;;;13.80;7.33;;;11.90;99.90;;;;;;4964609;28;20442;-78
2022/11/18 10:47:56;;;;;;;9.70;6.30;;;12.00;99.90;;;;;;4964410;28;20540;-78
2022/11/18 10:50:32;;;;;;;10.17;6.47;;;12.00;99.90;;;;;;4964657;28;20509;-77
2022/11/18 10:52:58;;;;;;;9.63;7.50;;;12.00;99.90;;;;;;4962430;28;20432;-73
2022/11/18 10:55:26;;;;;;;10.37;6.83;;;12.00;99.90;;;;;;4965208;28;20434;-77
2022/11/18 10:57:56;;;;;;;9.90;6.77;;;12.10;99.90;;;;;;4963847;28;20545;-79
2022/11/18 11:00:35;;;;;;;10.80;5.90;;;12.10;99.90;;;;;;4964650;28;20917;-78
2022/11/18 11:03:21;;;;;;;9.10;5.57;;;12.10;99.90;;;;;;4964616;28;20946;-78
2022/11/18 11:05:46;;;;;;;7.70;6.10;;;12.10;99.90;;;;;;4962748;28;20438;-79
2022/11/18 11:08:21;;;;;;;10.00;6.47;;;12.20;99.90;;;;;;4946692;28;20451;-80
2022/11/18 11:10:57;;;;;;;10.40;5.33;;;12.20;99.90;;;;;;4962709;28;20170;-79
2022/11/18 11:13:27;;;;;;;12.33;5.87;;;12.20;99.90;;;;;;4962816;28;20433;-79
2022/11/18 11:15:57;;;;;;;9.93;4.83;;;12.20;99.90;;;;;;4963553;28;20417;-79
2022/11/18 11:18:40;;;;;;;5.43;3.90;;;12.20;99.90;;;;;;4964397;28;20413;-86
2022/11/18 11:21:21;;;;;;;6.67;4.20;;;12.30;99.90;;;;;;4963957;28;20497;-86
2022/11/18 11:23:47;;;;;;;12.00;5.70;;;12.30;99.90;;;;;;4962577;28;20433;-74
2022/11/18 11:26:43;;;;;;;7.80;4.93;;;12.30;99.90;;;;;;4958289;28;20476;-79
2022/11/18 11:29:44;;;;;;;7.33;4.63;;;12.40;99.90;;;;;;4954571;28;20186;-79
2022/11/18 11:32:31;;;;;;;7.40;5.07;;;12.60;99.90;;;;;;4936057;28;20472;-79
2022/11/18 11:34:57;;;;;;;5.80;4.37;;;12.70;99.90;;;;;;4954102;29;20441;-78
2022/11/18 11:37:55;;;;;;;11.83;5.40;;;12.80;99.90;;;;;;4953731;29;20453;-78
2022/11/18 11:40:45;;;;;;;5.37;4.30;;;12.70;99.90;;;;;;4954048;29;20174;-78
2022/11/18 11:43:19;;;;;;;7.73;3.97;;;12.80;99.90;;;;;;4953999;29;20437;-77
2022/11/18 11:46:06;;;;;;;4.13;3.60;;;12.90;99.90;;;;;;4953622;29;20433;-77
2022/11/18 11:48:59;;;;;;;8.47;3.73;;;12.90;99.90;;;;;;4953904;29;20442;-80
2022/11/18 11:52:01;;;;;;;11.27;3.60;;;12.90;99.90;;;;;;4921693;29;20430;-81
2022/11/18 11:54:45;;;;;;;10.03;3.97;;;12.90;99.90;;;;;;4941164;29;20532;-80
2022/11/18 11:57:45;;;;;;;4.30;3.63;;;13.10;99.90;;;;;;4954001;29;20487;-80
2022/11/18 12:00:13;;;;;;;7.93;4.03;;;13.10;99.90;;;;;;4954038;29;20789;-79
2022/11/18 12:02:59;;;;;;;8.00;4.00;;;13.20;99.90;;;;;;4953606;28;20796;-80
2022/11/18 12:05:34;;;;;;;7.00;4.30;;;13.20;99.90;;;;;;4957250;29;20795;-82
2022/11/18 12:08:04;;;;;;;6.83;5.10;;;13.20;99.90;;;;;;4960217;28;20474;-76
2022/11/18 12:10:59;;;;;;;6.80;3.60;;;13.30;99.90;;;;;;4966603;28;20441;-78
2022/11/18 12:13:42;;;;;;;11.53;4.27;;;13.40;99.90;;;;;;4976793;28;20437;-77
2022/11/18 12:16:31;;;;;;;6.00;4.30;;;13.40;99.90;;;;;;4976845;28;20521;-74
2022/11/18 12:19:01;;;;;;;7.90;4.03;;;13.40;99.90;;;;;;4976716;28;20428;-78
2022/11/18 12:21:45;;;;;;;4.57;3.70;;;13.40;99.90;;;;;;4973911;28;20784;-78
2022/11/18 12:24:29;;;;;;;10.07;4.40;;;13.40;99.90;;;;;;4964888;28;20500;-79
2022/11/18 12:27:09;;;;;;;8.83;3.90;;;13.50;99.90;;;;;;4957350;29;20474;-78
2022/11/18 12:29:43;;;;;;;7.13;4.40;;;13.60;99.90;;;;;;4965492;28;20503;-78
2022/11/18 12:32:34;;;;;;;6.30;4.30;;;13.60;99.90;;;;;;4957836;28;20556;-78
2022/11/18 12:35:11;;;;;;;4.17;3.47;;;13.70;99.90;;;;;;4976352;28;20421;-78
2022/11/18 12:37:52;;;;;;;4.73;2.97;;;13.70;99.90;;;;;;4965753;28;20444;-78
2022/11/18 12:40:39;;;;;;;4.53;3.67;;;13.70;99.90;;;;;;4960653;28;20479;-77
2022/11/18 12:46:32;;;;;;;13.40;4.67;;;13.80;99.90;;;;;;4934676;29;20837;-78
2022/11/18 12:49:21;;;;;;;7.67;3.17;;;13.90;99.90;;;;;;4943972;29;20442;-77
2022/11/18 12:51:47;;;;;;;5.43;3.27;;;13.90;99.90;;;;;;4956809;29;20422;-78
2022/11/18 12:54:33;;;;;;;3.67;2.83;;;14.00;99.90;;;;;;4956987;29;20533;-78
2022/11/18 12:57:12;;;;;;;6.80;3.23;;;14.00;99.90;;;;;;4956829;29;20937;-78
2022/11/18 12:59:38;;;;;;;5.63;2.90;;;14.00;99.90;;;;;;4956909;29;20422;-78
2022/11/18 13:02:23;;;;;;;7.77;3.20;;;13.90;99.90;;;;;;4956722;29;20760;-77
2022/11/18 13:05:10;;;;;;;8.27;3.10;;;13.90;99.90;;;;;;4956081;29;20277;-77
2022/11/18 13:08:12;;;;;;;5.37;2.60;;;13.80;99.90;;;;;;4956729;29;20473;-78
2022/11/18 13:11:43;;;;;;;2.90;2.67;;;13.70;99.90;;;;;;4957679;28;20426;-77
2022/11/18 13:13:40;;;;;;;6.17;3.87;;;13.60;99.90;;;;;;4958953;28;20435;-77
2022/11/18 13:19:21;;;;;;;6.70;3.13;;;13.50;99.90;;;;;;4966128;28;20496;-77
2022/11/18 13:24:44;;;;;;;7.80;3.20;;;13.30;99.90;;;;;;4970973;28;20440;-82
2022/11/18 13:27:21;;;;;;;6.40;2.90;;;13.30;99.90;;;;;;4964538;28;20488;-79
2022/11/18 13:30:05;;;;;;;8.97;2.87;;;13.30;99.90;;;;;;4966074;28;20505;-79
2022/11/18 13:32:31;;;;;;;8.97;2.60;;;13.20;99.90;;;;;;4967233;28;20483;-87
2022/11/18 13:35:18;;;;;;;5.80;2.90;;;13.20;99.90;;;;;;4949497;28;20434;-87
2022/11/18 13:37:54;;;;;;;7.53;3.27;;;13.20;99.90;;;;;;4964229;28;20428;-82
2022/11/18 13:40:23;;;;;;;7.00;2.50;;;13.20;99.90;;;;;;4968338;28;20429;-87
2022/11/18 13:42:48;;;;;;;6.10;2.63;;;13.20;99.90;;;;;;4973961;28;20442;-86
2022/11/18 13:45:14;;;;;;;6.30;2.50;;;13.20;99.90;;;;;;4958202;29;20436;-85
2022/11/18 13:47:54;;;;;;;7.40;2.80;;;13.20;99.90;;;;;;4957001;29;20305;-78
2022/11/18 13:50:33;;;;;;;6.73;3.70;;;13.10;99.90;;;;;;4955755;29;20261;-75
2022/11/18 13:53:37;;;;;;;9.10;2.93;;;13.10;99.90;;;;;;4958452;28;20558;-81
2022/11/18 13:56:23;;;;;;;7.47;2.60;;;13.10;99.90;;;;;;4859690;29;20475;-79
2022/11/18 13:58:48;;;;;;;6.80;2.50;;;13.10;99.90;;;;;;4950867;29;20434;-79
2022/11/18 14:01:18;;;;;;;15.97;3.00;;;13.10;99.90;;;;;;4956645;29;20418;-83
2022/11/18 14:03:43;;;;;;;3.20;2.30;;;13.00;99.90;;;;;;4949002;28;20179;-80
2022/11/18 14:06:09;;;;;;;8.00;2.60;;;13.00;99.90;;;;;;4963741;28;20461;-79
2022/11/18 14:08:38;;;;;;;10.53;2.70;;;13.10;99.90;;;;;;4965431;28;20261;-81
2022/11/18 14:11:05;;;;;;;5.90;2.80;;;13.10;99.90;;;;;;4962974;28;20580;-84
2022/11/18 14:13:34;;;;;;;9.73;3.30;;;13.10;99.90;;;;;;4972249;28;20437;-78
2022/11/18 14:16:21;;;;;;;4.70;2.90;;;13.10;99.90;;;;;;4966073;28;20437;-79
2022/11/18 14:18:50;;;;;;;5.73;2.80;;;13.00;99.90;;;;;;4965122;28;20444;-79
2022/11/18 14:21:27;;;;;;;6.43;2.30;;;13.00;99.90;;;;;;4964823;28;20432;-78
2022/11/18 14:23:53;;;;;;;8.10;3.00;;;13.00;99.90;;;;;;4961230;28;20499;-78
2022/11/18 14:26:34;;;;;;;5.43;2.90;;;13.00;99.90;;;;;;4964437;28;20969;-78
2022/11/18 14:29:13;;;;;;;4.97;2.97;;;12.90;99.90;;;;;;4965233;28;20465;-77
2022/11/18 14:31:39;;;;;;;7.50;3.00;;;12.90;99.90;;;;;;4964757;28;20465;-82
2022/11/18 14:34:25;;;;;;;12.03;3.17;;;12.90;99.90;;;;;;4963085;28;20863;-75
2022/11/18 14:36:52;;;;;;;6.10;3.40;;;12.80;99.90;;;;;;4963693;28;20167;-76
2022/11/18 14:39:26;;;;;;;7.60;2.57;;;12.80;99.90;;;;;;4963763;28;20436;-75
2022/11/18 14:41:53;;;;;;;5.03;2.80;;;12.70;99.90;;;;;;4963663;28;20434;-77
2022/11/18 14:44:20;;;;;;;7.33;2.83;;;12.70;99.90;;;;;;4963744;28;20437;-74
2022/11/18 14:46:52;;;;;;;6.83;2.43;;;12.70;99.90;;;;;;4964819;28;20523;-74
2022/11/18 14:49:22;;;;;;;5.40;2.53;;;12.60;99.90;;;;;;4964144;28;20430;-76
2022/11/18 14:51:49;;;;;;;4.63;2.40;;;12.60;99.90;;;;;;4963168;28;20426;-77
2022/11/18 14:54:17;;;;;;;4.60;3.20;;;12.50;99.90;;;;;;4965768;28;20805;-82
2022/11/18 14:56:44;;;;;;;10.60;3.33;;;12.50;99.90;;;;;;4973869;28;20968;-73
2022/11/18 14:59:14;;;;;;;6.33;3.23;;;12.50;99.90;;;;;;4973929;28;20517;-74
2022/11/18 15:01:41;;;;;;;10.80;2.60;;;12.40;99.90;;;;;;4973657;28;20417;-74
2022/11/18 15:04:07;;;;;;;6.13;2.43;;;12.30;99.90;;;;;;4973947;28;20521;-74
2022/11/18 15:06:33;;;;;;;10.07;3.47;;;12.30;99.90;;;;;;4973608;28;20959;-74
2022/11/18 15:08:58;;;;;;;9.93;2.87;;;12.30;99.90;;;;;;4973594;28;20483;-74
2022/11/18 15:11:24;;;;;;;8.17;3.53;;;12.30;99.90;;;;;;4973643;28;20174;-74
2022/11/18 15:13:49;;;;;;;5.53;3.00;;;12.20;99.90;;;;;;4973456;28;20634;-74
2022/11/18 15:16:18;;;;;;;7.27;3.23;;;12.30;99.90;;;;;;4973711;28;20232;-74
2022/11/18 15:18:46;;;;;;;8.37;4.63;;;12.30;99.90;;;;;;4962334;28;20180;-74
2022/11/18 15:21:12;;;;;;;5.83;4.10;;;12.30;99.90;;;;;;4962630;28;20802;-76
2022/11/18 15:23:37;;;;;;;8.23;3.57;;;12.20;99.90;;;;;;4963322;28;20806;-77
2022/11/18 15:26:27;;;;;;;6.53;2.33;;;12.30;99.90;;;;;;4964045;28;20418;-72
2022/11/18 15:28:55;;;;;;;7.05;3.25;;;12.30;99.90;;;;;;4964608;28;21418;-73
2022/11/18 15:31:22;;;;;;;15.37;4.07;;;12.30;99.90;;;;;;4962567;28;20222;-73
2022/11/18 15:33:51;;;;;;;6.47;3.20;;;12.40;99.90;;;;;;4962977;28;20836;-72
2022/11/18 15:36:20;;;;;;;4.20;3.23;;;12.40;99.90;;;;;;4964303;28;20437;-73
2022/11/18 15:38:46;;;;;;;6.13;2.70;;;12.40;99.90;;;;;;4962558;28;20430;-73
2022/11/18 15:41:21;;;;;;;6.37;3.03;;;12.30;99.90;;;;;;4962431;28;20464;-74
2022/11/18 15:43:48;;;;;;;9.67;4.00;;;12.30;99.90;;;;;;4963266;28;20443;-74
2022/11/18 15:46:20;;;;;;;11.53;2.90;;;12.30;99.90;;;;;;4962220;28;20992;-71
2022/11/18 15:48:47;;;;;;;8.17;3.10;;;12.20;99.90;;;;;;4963234;28;20529;-72
2022/11/18 15:51:13;;;;;;;7.83;3.00;;;12.20;99.90;;;;;;4963975;28;20458;-71
2022/11/18 15:53:39;;;;;;;10.23;3.57;;;12.20;99.90;;;;;;4962308;28;20425;-71
2022/11/18 15:56:22;;;;;;;12.87;4.80;;;12.10;99.90;;;;;;4964672;28;20853;-71
2022/11/18 15:59:09;;;;;;;17.40;5.37;;;12.10;99.90;;;;;;4962805;28;20626;-72
2022/11/18 16:01:43;;;;;;;6.20;4.17;;;12.00;99.90;;;;;;4964098;28;20477;-71
2022/11/18 16:04:11;;;;;;;7.43;3.57;;;12.00;99.90;;;;;;4963298;28;20433;-71
2022/11/18 16:06:37;;;;;;;12.70;4.40;;;11.90;99.90;;;;;;4963594;28;20457;-72
2022/11/18 16:09:04;;;;;;;18.20;4.17;;;11.90;99.90;;;;;;4964746;28;20520;-73
2022/11/18 16:14:17;;;;;;;6.57;3.40;;;11.80;99.90;;;;;;4965227;28;20825;-71
2022/11/18 16:16:43;;;;;;;8.67;3.80;;;11.80;99.90;;;;;;4972340;28;20421;-71
2022/11/18 16:19:12;;;;;;;6.73;3.80;;;11.70;99.90;;;;;;4973529;28;20429;-71
2022/11/18 16:21:40;;;;;;;6.17;3.10;;;11.70;99.90;;;;;;4973404;28;20460;-71
2022/11/18 16:24:07;;;;;;;9.00;3.87;;;11.60;99.90;;;;;;4972589;28;20433;-71
2022/11/18 16:26:34;;;;;;;9.83;3.60;;;11.60;99.90;;;;;;4973864;28;20911;-74
2022/11/18 16:28:59;;;;;;;7.53;3.70;;;11.60;99.90;;;;;;4955020;28;20433;-75
2022/11/18 16:31:40;;;;;;;13.10;8.33;;;11.60;99.90;;;;;;4973797;28;20484;-76
2022/11/18 16:34:06;;;;;;;24.30;16.23;;;11.60;99.90;;;;;;4973957;28;20185;-74
2022/11/18 16:36:31;;;;;;;21.70;16.70;;;11.60;99.90;;;;;;4973898;28;20488;-75
2022/11/18 16:39:02;;;;;;;23.90;16.53;;;11.60;99.90;;;;;;4973739;28;20224;-76
2022/11/18 16:41:30;;;;;;;17.17;12.30;;;11.50;99.90;;;;;;4973860;28;20185;-75
2022/11/18 16:43:59;;;;;;;18.13;11.90;;;11.50;99.90;;;;;;4956686;28;20461;-76
2022/11/18 16:46:25;;;;;;;14.73;11.40;;;11.40;99.90;;;;;;4973729;28;20497;-76
2022/11/18 16:48:51;;;;;;;16.80;12.87;;;11.40;99.90;;;;;;4973690;28;20441;-75
2022/11/18 16:51:21;;;;;;;14.63;11.30;;;11.40;99.90;;;;;;4977192;28;20424;-76
2022/11/18 16:53:55;;;;;;;12.13;9.60;;;11.40;99.90;;;;;;4977163;28;20429;-75
2022/11/18 16:56:22;;;;;;;8.30;7.17;;;11.40;99.90;;;;;;4977045;28;20435;-75
2022/11/18 16:58:48;;;;;;;7.77;6.70;;;11.40;99.90;;;;;;4977024;28;20429;-75
2022/11/18 17:01:14;;;;;;;7.80;6.33;;;11.30;99.90;;;;;;4977019;28;20935;-75
2022/11/18 17:03:41;;;;;;;6.77;6.07;;;11.30;99.90;;;;;;4976897;28;20173;-75
2022/11/18 17:06:07;;;;;;;8.10;5.83;;;11.30;99.90;;;;;;4976705;28;20573;-75
2022/11/18 17:08:36;;;;;;;7.60;6.30;;;11.30;99.90;;;;;;4976905;28;20425;-75
2022/11/18 17:11:09;;;;;;;8.17;7.17;;;11.30;99.90;;;;;;4976167;28;20962;-76
2022/11/18 17:13:36;;;;;;;13.70;9.40;;;11.30;99.90;;;;;;4976620;28;20433;-76
2022/11/18 17:16:13;;;;;;;12.03;7.50;;;11.20;99.90;;;;;;4974288;28;20580;-75
2022/11/18 17:18:39;;;;;;;10.10;6.97;;;11.20;99.90;;;;;;4975616;28;20784;-75